createdAt,value
2018-03-29T00:00:01.887Z,8.42
2018-03-29T00:02:30.216Z,8.48
2018-03-29T00:04:58.514Z,8.53
2018-03-29T00:07:26.777Z,8.56
2018-03-29T00:09:55.094Z,8.60
2018-03-29T00:12:23.389Z,8.62
2018-03-29T00:14:51.658Z,8.61
2018-03-29T00:17:19.965Z,8.46
2018-03-29T00:19:49.058Z,8.37
2018-03-29T00:22:17.318Z,8.36
2018-03-29T00:24:45.621Z,8.38
2018-03-29T00:27:13.855Z,8.38
2018-03-29T00:29:42.175Z,8.38
2018-03-29T00:32:10.436Z,8.43
2018-03-29T00:34:38.719Z,8.40
2018-03-29T00:37:07.010Z,8.36
2018-03-29T00:39:35.290Z,8.33
2018-03-29T00:42:03.606Z,8.31
2018-03-29T00:44:31.878Z,8.27
2018-03-29T00:47:00.166Z,8.23
2018-03-29T00:49:28.439Z,8.17
2018-03-29T00:51:57.452Z,8.18
2018-03-29T00:54:25.759Z,8.25
2018-03-29T00:56:54.024Z,8.24
2018-03-29T00:59:22.279Z,8.23
2018-03-29T01:01:50.569Z,8.26
2018-03-29T01:04:18.812Z,8.21
2018-03-29T01:06:47.200Z,8.35
2018-03-29T01:09:15.483Z,8.29
2018-03-29T01:11:43.831Z,8.19
2018-03-29T01:14:12.056Z,8.13
2018-03-29T01:16:40.329Z,8.11
2018-03-29T01:19:08.596Z,8.14
2018-03-29T01:21:36.941Z,8.20
2018-03-29T01:24:05.666Z,8.10
2018-03-29T01:26:33.959Z,8.12
2018-03-29T01:29:02.228Z,8.14
2018-03-29T01:31:30.483Z,8.17
2018-03-29T01:33:58.836Z,8.16
2018-03-29T01:36:27.102Z,8.11
2018-03-29T01:38:55.409Z,8.03
2018-03-29T01:41:23.967Z,8.02
2018-03-29T01:43:52.240Z,7.99
2018-03-29T01:46:20.477Z,8.08
2018-03-29T01:48:49.311Z,7.92
2018-03-29T01:51:17.587Z,7.95
2018-03-29T01:53:45.990Z,8.01
2018-03-29T01:56:14.263Z,7.98
2018-03-29T01:58:42.596Z,7.92
2018-03-29T02:01:10.922Z,7.99
2018-03-29T02:03:39.195Z,7.96
2018-03-29T02:06:07.464Z,7.96
2018-03-29T02:08:35.769Z,7.95
2018-03-29T02:11:04.043Z,7.78
2018-03-29T02:13:32.356Z,7.79
2018-03-29T02:16:00.618Z,7.73
2018-03-29T02:18:28.947Z,7.65
2018-03-29T02:20:57.203Z,7.63
2018-03-29T02:23:25.515Z,7.58
2018-03-29T02:25:53.815Z,7.53
2018-03-29T02:28:22.092Z,7.47
2018-03-29T02:30:50.392Z,7.53
2018-03-29T02:33:18.649Z,7.47
2018-03-29T02:35:46.916Z,7.45
2018-03-29T02:38:15.197Z,7.52
2018-03-29T02:40:43.543Z,7.61
2018-03-29T02:43:11.808Z,7.40
2018-03-29T02:45:40.134Z,7.39
2018-03-29T02:48:08.391Z,7.49
2018-03-29T02:50:36.680Z,7.58
2018-03-29T02:53:05.443Z,7.60
2018-03-29T02:55:33.769Z,7.63
2018-03-29T02:58:02.037Z,7.61
2018-03-29T03:00:30.339Z,7.59
2018-03-29T03:02:59.136Z,7.63
2018-03-29T03:05:27.551Z,7.63
2018-03-29T03:07:56.646Z,7.61
2018-03-29T03:10:24.936Z,7.50
2018-03-29T03:12:53.260Z,7.54
2018-03-29T03:15:21.608Z,7.60
2018-03-29T03:17:49.938Z,7.57
2018-03-29T03:20:18.195Z,7.61
2018-03-29T03:22:46.521Z,7.49
2018-03-29T03:25:14.775Z,7.38
2018-03-29T03:27:43.083Z,7.44
2018-03-29T03:30:11.381Z,7.48
2018-03-29T03:32:39.687Z,7.42
2018-03-29T03:35:07.956Z,7.38
2018-03-29T03:37:36.272Z,7.37
2018-03-29T03:40:05.508Z,7.39
2018-03-29T03:42:33.870Z,7.46
2018-03-29T03:45:02.182Z,7.60
2018-03-29T03:47:30.505Z,7.59
2018-03-29T03:49:58.778Z,7.58
2018-03-29T03:52:27.103Z,7.48
2018-03-29T03:54:55.393Z,7.40
2018-03-29T03:57:23.695Z,7.46
2018-03-29T03:59:51.990Z,7.49
2018-03-29T04:02:20.357Z,7.48
2018-03-29T04:04:48.584Z,7.54
2018-03-29T04:07:16.875Z,7.55
2018-03-29T04:09:45.414Z,7.54
2018-03-29T04:12:13.720Z,7.60
2018-03-29T04:14:42.012Z,7.60
2018-03-29T04:17:10.322Z,7.59
2018-03-29T04:19:38.591Z,7.58
2018-03-29T04:22:06.927Z,7.54
2018-03-29T04:24:35.240Z,7.45
2018-03-29T04:27:03.511Z,7.43
2018-03-29T04:29:31.835Z,7.54
2018-03-29T04:32:00.141Z,7.40
2018-03-29T04:34:28.424Z,7.58
2018-03-29T04:36:56.739Z,7.52
2018-03-29T04:39:25.060Z,7.47
2018-03-29T04:41:53.397Z,7.55
2018-03-29T04:44:21.679Z,7.57
2018-03-29T04:46:49.997Z,7.48
2018-03-29T04:49:18.302Z,7.45
2018-03-29T04:51:46.578Z,7.43
2018-03-29T04:54:14.895Z,7.50
2018-03-29T04:56:43.213Z,7.57
2018-03-29T04:59:11.615Z,7.52
2018-03-29T05:01:39.921Z,7.56
2018-03-29T05:04:08.262Z,7.62
2018-03-29T05:06:36.535Z,7.60
2018-03-29T05:09:05.427Z,7.59
2018-03-29T05:11:33.747Z,7.65
2018-03-29T05:14:02.044Z,7.64
2018-03-29T05:16:30.330Z,7.56
2018-03-29T05:18:58.608Z,7.66
2018-03-29T05:21:26.888Z,7.54
2018-03-29T05:23:55.244Z,7.54
2018-03-29T05:26:23.566Z,7.49
2018-03-29T05:28:51.851Z,7.48
2018-03-29T05:31:20.168Z,7.46
2018-03-29T05:33:48.476Z,7.55
2018-03-29T05:36:16.752Z,7.58
2018-03-29T05:38:45.067Z,7.61
2018-03-29T05:41:13.409Z,7.73
2018-03-29T05:43:41.687Z,7.64
2018-03-29T05:46:10.363Z,7.61
2018-03-29T05:48:38.729Z,7.60
2018-03-29T05:51:07.055Z,7.65
2018-03-29T05:53:35.296Z,7.67
2018-03-29T05:56:03.592Z,7.77
2018-03-29T05:58:32.196Z,7.77
2018-03-29T06:01:00.491Z,7.73
2018-03-29T06:03:29.435Z,7.86
2018-03-29T06:05:57.748Z,7.82
2018-03-29T06:08:26.024Z,7.70
2018-03-29T06:10:54.353Z,7.69
2018-03-29T06:13:22.647Z,7.58
2018-03-29T06:15:56.588Z,7.61
2018-03-29T06:18:24.863Z,7.54
2018-03-29T06:20:53.186Z,7.65
2018-03-29T06:23:21.464Z,7.74
2018-03-29T06:25:50.459Z,7.81
2018-03-29T06:28:19.080Z,7.72
2018-03-29T06:30:47.419Z,7.72
2018-03-29T06:33:15.696Z,7.89
2018-03-29T06:35:44.026Z,8.04
2018-03-29T06:38:12.329Z,7.95
2018-03-29T06:40:40.585Z,7.89
2018-03-29T06:43:08.918Z,7.99
2018-03-29T06:45:37.186Z,8.05
2018-03-29T06:48:05.487Z,8.07
2018-03-29T06:50:33.813Z,8.14
2018-03-29T06:53:02.134Z,8.05
2018-03-29T06:55:30.426Z,8.11
2018-03-29T06:57:59.140Z,8.25
2018-03-29T07:00:27.980Z,8.24
2018-03-29T07:02:56.268Z,8.13
2018-03-29T07:05:24.590Z,8.11
2018-03-29T07:07:52.904Z,8.00
2018-03-29T07:10:21.212Z,7.90
2018-03-29T07:12:49.505Z,7.92
2018-03-29T07:15:17.856Z,8.03
2018-03-29T07:17:46.180Z,8.01
2018-03-29T07:20:14.483Z,8.00
2018-03-29T07:22:42.772Z,7.99
2018-03-29T07:25:11.380Z,8.01
2018-03-29T07:27:39.705Z,8.02
2018-03-29T07:30:08.087Z,8.07
2018-03-29T07:32:36.379Z,7.92
2018-03-29T07:35:05.067Z,7.84
2018-03-29T07:37:33.368Z,7.83
2018-03-29T07:40:01.633Z,7.72
2018-03-29T07:42:29.921Z,7.83
2018-03-29T07:44:58.815Z,7.85
2018-03-29T07:47:27.199Z,8.00
2018-03-29T07:49:55.564Z,8.07
2018-03-29T07:52:23.877Z,8.16
2018-03-29T07:54:52.149Z,8.31
2018-03-29T07:57:20.455Z,8.39
2018-03-29T07:59:48.807Z,8.30
2018-03-29T08:02:17.112Z,8.43
2018-03-29T08:04:45.394Z,8.31
2018-03-29T08:07:13.717Z,8.34
2018-03-29T08:09:42.028Z,8.31
2018-03-29T08:12:10.524Z,8.54
2018-03-29T08:14:38.840Z,8.66
2018-03-29T08:17:07.192Z,8.69
2018-03-29T08:19:35.504Z,8.64
2018-03-29T08:22:06.221Z,8.53
2018-03-29T08:24:34.562Z,8.69
2018-03-29T08:27:02.940Z,8.76
2018-03-29T08:29:31.286Z,9.09
2018-03-29T08:32:01.900Z,9.09
2018-03-29T08:34:30.357Z,9.23
2018-03-29T08:36:58.633Z,9.17
2018-03-29T08:39:27.368Z,9.18
2018-03-29T08:41:55.659Z,9.23
2018-03-29T08:44:24.504Z,9.39
2018-03-29T08:46:52.983Z,9.53
2018-03-29T08:49:22.463Z,9.59
2018-03-29T08:51:50.768Z,9.60
2018-03-29T08:54:25.009Z,9.65
2018-03-29T08:56:53.413Z,9.78
2018-03-29T08:59:21.729Z,9.78
2018-03-29T09:01:50.085Z,9.90
2018-03-29T09:04:18.936Z,10.03
2018-03-29T09:06:47.309Z,10.09
2018-03-29T09:09:15.620Z,10.35
2018-03-29T09:11:43.888Z,10.46
2018-03-29T09:14:12.233Z,10.26
2018-03-29T09:16:43.472Z,10.17
2018-03-29T09:19:11.973Z,10.05
2018-03-29T09:21:40.440Z,10.02
2018-03-29T09:24:10.355Z,9.91
2018-03-29T09:26:38.692Z,10.01
2018-03-29T09:29:06.975Z,10.07
2018-03-29T09:31:35.262Z,10.11
2018-03-29T09:34:03.637Z,10.13
2018-03-29T09:36:32.296Z,10.25
2018-03-29T09:39:00.561Z,10.22
2018-03-29T09:41:28.868Z,10.17
2018-03-29T09:43:57.155Z,9.97
2018-03-29T09:46:25.519Z,9.97
2018-03-29T09:48:53.874Z,10.16
2018-03-29T09:51:22.218Z,10.30
2018-03-29T09:53:50.685Z,10.38
2018-03-29T09:56:19.036Z,10.34
2018-03-29T09:58:47.338Z,10.40
2018-03-29T10:01:15.639Z,10.30
2018-03-29T10:03:49.446Z,10.26
2018-03-29T10:06:17.802Z,10.58
2018-03-29T10:08:47.100Z,10.78
2018-03-29T10:11:15.403Z,10.93
2018-03-29T10:13:43.657Z,10.95
2018-03-29T10:16:12.037Z,10.78
2018-03-29T10:18:40.300Z,10.70
2018-03-29T10:21:08.813Z,10.71
2018-03-29T10:23:37.138Z,10.81
2018-03-29T10:26:05.713Z,10.92
2018-03-29T10:28:33.992Z,11.00
2018-03-29T10:31:02.348Z,10.91
2018-03-29T10:33:30.663Z,11.15
2018-03-29T10:35:59.024Z,10.96
2018-03-29T10:38:27.875Z,10.83
2018-03-29T10:40:56.758Z,11.16
2018-03-29T10:43:25.193Z,11.09
2018-03-29T10:45:53.585Z,11.62
2018-03-29T10:48:22.190Z,11.70
2018-03-29T10:50:50.504Z,11.72
2018-03-29T10:53:19.135Z,11.57
2018-03-29T10:55:47.412Z,11.63
2018-03-29T10:58:15.729Z,11.71
2018-03-29T11:00:44.042Z,11.75
2018-03-29T11:03:12.341Z,11.58
2018-03-29T11:05:40.615Z,11.84
2018-03-29T11:08:08.892Z,12.10
2018-03-29T11:10:37.461Z,12.32
2018-03-29T11:13:06.151Z,12.38
2018-03-29T11:15:35.055Z,12.34
2018-03-29T11:18:03.408Z,12.31
2018-03-29T11:20:31.702Z,12.22
2018-03-29T11:23:00.073Z,12.09
2018-03-29T11:25:28.370Z,12.27
2018-03-29T11:27:56.724Z,12.32
2018-03-29T11:30:25.081Z,12.35
2018-03-29T11:32:53.507Z,12.25
2018-03-29T11:35:21.920Z,12.25
2018-03-29T11:37:50.157Z,12.17
2018-03-29T11:40:18.451Z,12.20
2018-03-29T11:42:46.758Z,12.11
2018-03-29T11:45:15.849Z,12.22
2018-03-29T11:47:44.133Z,12.17
2018-03-29T11:50:12.450Z,12.04
2018-03-29T11:52:40.748Z,12.11
2018-03-29T11:55:09.068Z,12.16
2018-03-29T11:57:39.112Z,12.01
2018-03-29T12:00:07.573Z,11.88
2018-03-29T12:02:35.897Z,11.97
2018-03-29T12:05:05.312Z,11.97
2018-03-29T12:07:34.532Z,11.98
2018-03-29T12:10:03.774Z,11.82
2018-03-29T12:12:32.073Z,11.85
2018-03-29T12:15:02.123Z,11.74
2018-03-29T12:17:30.388Z,11.66
2018-03-29T12:19:58.695Z,11.62
2018-03-29T12:22:27.004Z,11.63
2018-03-29T12:24:55.780Z,11.60
2018-03-29T12:27:24.160Z,11.56
2018-03-29T12:29:52.512Z,11.58
2018-03-29T12:32:20.860Z,11.62
2018-03-29T12:34:49.105Z,11.74
2018-03-29T12:37:17.433Z,11.82
2018-03-29T12:39:45.723Z,11.92
2018-03-29T12:42:14.045Z,11.88
2018-03-29T12:44:43.127Z,12.05
2018-03-29T12:47:12.532Z,12.11
2018-03-29T12:49:40.821Z,12.15
2018-03-29T12:52:09.124Z,12.29
2018-03-29T12:54:49.226Z,12.34
2018-03-29T12:57:29.389Z,12.47
2018-03-29T12:59:57.663Z,12.46
2018-03-29T13:02:25.976Z,12.25
2018-03-29T13:04:54.245Z,12.25
2018-03-29T13:07:22.584Z,12.21
2018-03-29T13:09:51.010Z,12.30
2018-03-29T13:12:19.298Z,12.21
2018-03-29T13:14:47.564Z,12.29
2018-03-29T13:17:15.996Z,12.34
2018-03-29T13:19:44.288Z,12.34
2018-03-29T13:22:12.569Z,12.47
2018-03-29T13:24:40.918Z,12.36
2018-03-29T13:27:09.224Z,12.54
2018-03-29T13:29:37.544Z,12.89
2018-03-29T13:32:05.895Z,12.87
2018-03-29T13:37:08.724Z,12.75
2018-03-29T13:39:38.256Z,12.70
2018-03-29T13:42:06.570Z,12.50
2018-03-29T13:44:35.624Z,12.33
2018-03-29T13:47:05.555Z,12.37
2018-03-29T13:49:37.570Z,12.28
2018-03-29T13:52:05.875Z,12.38
2018-03-29T13:54:35.996Z,12.43
2018-03-29T13:57:04.376Z,12.70
2018-03-29T13:59:33.663Z,13.06
2018-03-29T14:02:01.947Z,13.58
2018-03-29T14:04:30.837Z,13.50
2018-03-29T14:06:59.126Z,13.34
2018-03-29T14:09:27.748Z,13.63
2018-03-29T14:11:56.126Z,13.72
2018-03-29T14:14:24.425Z,13.74
2018-03-29T14:16:52.741Z,13.98
2018-03-29T14:19:24.251Z,14.12
2018-03-29T14:21:53.835Z,14.06
2018-03-29T14:24:23.150Z,14.30
2018-03-29T14:26:52.498Z,14.58
2018-03-29T14:29:20.891Z,14.86
2018-03-29T14:31:50.575Z,15.00
2018-03-29T14:34:19.822Z,15.00
2018-03-29T14:36:48.209Z,15.25
2018-03-29T14:39:16.690Z,15.32
2018-03-29T14:41:45.968Z,15.44
2018-03-29T14:44:14.280Z,15.97
2018-03-29T14:46:42.575Z,16.16
2018-03-29T14:49:10.841Z,16.29
2018-03-29T14:51:39.144Z,16.68
2018-03-29T14:54:07.433Z,16.93
2018-03-29T14:56:35.748Z,16.81
2018-03-29T14:59:04.061Z,16.86
2018-03-29T15:01:32.401Z,16.93
2018-03-29T15:04:00.753Z,17.14
2018-03-29T15:06:29.069Z,17.25
2018-03-29T15:08:57.349Z,16.70
2018-03-29T15:11:25.747Z,15.96
2018-03-29T15:13:54.154Z,15.72
2018-03-29T15:16:22.418Z,15.50
2018-03-29T15:18:50.686Z,15.77
2018-03-29T15:21:19.030Z,16.44
2018-03-29T15:23:47.373Z,16.59
2018-03-29T15:26:16.328Z,16.40
2018-03-29T15:28:44.599Z,16.43
2018-03-29T15:31:13.156Z,16.31
2018-03-29T15:33:41.460Z,15.98
2018-03-29T15:36:09.760Z,15.71
2018-03-29T15:38:38.134Z,15.61
2018-03-29T15:41:06.440Z,15.12
2018-03-29T15:43:34.762Z,14.49
2018-03-29T15:46:03.098Z,14.49
2018-03-29T15:48:31.451Z,14.16
2018-03-29T15:50:59.753Z,13.90
2018-03-29T15:53:28.053Z,13.93
2018-03-29T15:55:56.431Z,13.88
2018-03-29T15:58:24.806Z,13.70
2018-03-29T16:00:53.106Z,13.86
2018-03-29T16:03:21.459Z,13.82
2018-03-29T16:05:49.738Z,13.93
2018-03-29T16:08:18.049Z,13.86
2018-03-29T16:10:46.391Z,13.74
2018-03-29T16:13:14.775Z,13.77
2018-03-29T16:15:43.126Z,13.75
2018-03-29T16:18:11.490Z,13.67
2018-03-29T16:20:40.076Z,13.63
2018-03-29T16:23:08.409Z,13.83
2018-03-29T16:25:36.704Z,13.86
2018-03-29T16:28:05.001Z,13.79
2018-03-29T16:30:33.308Z,13.73
2018-03-29T16:33:01.642Z,13.83
2018-03-29T16:35:30.013Z,13.78
2018-03-29T16:37:58.381Z,13.81
2018-03-29T16:40:26.717Z,13.75
2018-03-29T16:42:55.092Z,13.36
2018-03-29T16:45:23.467Z,13.28
2018-03-29T16:47:51.796Z,13.15
2018-03-29T16:50:20.084Z,13.30
2018-03-29T16:52:48.339Z,13.49
2018-03-29T16:55:16.668Z,13.56
2018-03-29T16:57:44.965Z,13.43
2018-03-29T17:00:13.372Z,13.34
2018-03-29T17:02:41.633Z,13.30
2018-03-29T17:05:09.947Z,13.31
2018-03-29T17:07:38.211Z,13.10
2018-03-29T17:10:06.491Z,13.18
2018-03-29T17:12:34.794Z,13.14
2018-03-29T17:15:04.080Z,13.13
2018-03-29T17:17:32.332Z,13.22
2018-03-29T17:20:00.641Z,13.14
2018-03-29T17:22:28.962Z,13.02
2018-03-29T17:24:57.381Z,12.78
2018-03-29T17:27:25.845Z,12.64
2018-03-29T17:29:54.142Z,12.54
2018-03-29T17:32:22.418Z,12.50
2018-03-29T17:34:51.425Z,12.51
2018-03-29T17:37:19.681Z,12.30
2018-03-29T17:39:48.240Z,12.16
2018-03-29T17:42:16.544Z,12.18
2018-03-29T17:44:44.794Z,12.16
2018-03-29T17:47:13.159Z,12.14
2018-03-29T17:49:41.429Z,12.12
2018-03-29T17:52:09.721Z,12.02
2018-03-29T17:54:38.049Z,12.01
2018-03-29T17:57:06.406Z,11.90
2018-03-29T17:59:34.687Z,11.91
2018-03-29T18:02:03.023Z,11.84
2018-03-29T18:04:31.277Z,11.79
2018-03-29T18:06:59.650Z,11.78
2018-03-29T18:09:28.088Z,11.74
2018-03-29T18:11:56.441Z,11.59
2018-03-29T18:14:24.940Z,11.51
2018-03-29T18:16:53.449Z,11.49
2018-03-29T18:19:21.745Z,11.56
2018-03-29T18:21:50.072Z,11.56
2018-03-29T18:24:18.448Z,11.44
2018-03-29T18:26:46.781Z,11.36
2018-03-29T18:29:16.159Z,11.26
2018-03-29T18:31:44.927Z,11.19
2018-03-29T18:34:13.384Z,11.07
2018-03-29T18:36:41.758Z,11.01
2018-03-29T18:39:10.149Z,11.00
2018-03-29T18:41:38.441Z,10.99
2018-03-29T18:44:06.835Z,11.03
2018-03-29T18:46:35.164Z,11.09
2018-03-29T18:49:04.490Z,10.95
2018-03-29T18:51:32.873Z,10.91
2018-03-29T18:54:01.768Z,11.03
2018-03-29T18:56:30.037Z,10.93
2018-03-29T18:58:58.335Z,10.75
2018-03-29T19:01:26.724Z,10.68
2018-03-29T19:03:55.031Z,10.63
2018-03-29T19:06:23.360Z,10.48
2018-03-29T19:08:52.216Z,10.39
2018-03-29T19:11:20.489Z,10.28
2018-03-29T19:13:52.156Z,10.34
2018-03-29T19:16:22.263Z,10.28
2018-03-29T19:18:53.288Z,10.14
2018-03-29T19:21:22.186Z,10.22
2018-03-29T19:23:50.547Z,10.05
2018-03-29T19:26:18.863Z,9.79
2018-03-29T19:28:47.137Z,9.69
2018-03-29T19:31:15.407Z,9.67
2018-03-29T19:33:43.687Z,9.53
2018-03-29T19:36:12.039Z,9.41
2018-03-29T19:38:40.341Z,9.41
2018-03-29T19:41:08.691Z,9.22
2018-03-29T19:43:37.015Z,9.16
2018-03-29T19:46:06.501Z,9.11
2018-03-29T19:48:34.769Z,9.17
2018-03-29T19:51:03.359Z,9.18
2018-03-29T19:53:31.626Z,9.16
2018-03-29T19:56:00.604Z,9.08
2018-03-29T19:58:29.326Z,9.09
2018-03-29T20:00:57.644Z,8.92
2018-03-29T20:03:25.967Z,8.64
2018-03-29T20:05:54.370Z,8.67
2018-03-29T20:08:23.516Z,8.71
2018-03-29T20:10:51.820Z,8.46
2018-03-29T20:13:20.128Z,8.48
2018-03-29T20:15:48.478Z,8.47
2018-03-29T20:18:16.730Z,8.41
2018-03-29T20:20:45.063Z,8.33
2018-03-29T20:23:13.368Z,8.21
2018-03-29T20:25:41.665Z,8.30
2018-03-29T20:28:09.939Z,8.37
2018-03-29T20:30:38.358Z,8.48
2018-03-29T20:33:06.675Z,8.45
2018-03-29T20:35:34.995Z,8.40
2018-03-29T20:38:03.775Z,8.28
2018-03-29T20:40:32.089Z,8.13
2018-03-29T20:43:00.367Z,8.15
2018-03-29T20:45:28.668Z,8.14
2018-03-29T20:47:56.961Z,8.13
2018-03-29T20:50:25.330Z,8.15
2018-03-29T20:52:53.569Z,8.10
2018-03-29T20:55:21.845Z,7.99
2018-03-29T20:57:50.143Z,8.01
2018-03-29T21:00:18.428Z,7.91
2018-03-29T21:02:46.708Z,7.94
2018-03-29T21:05:14.986Z,7.98
2018-03-29T21:07:43.395Z,7.94
2018-03-29T21:10:11.700Z,7.88
2018-03-29T21:12:39.986Z,7.76
2018-03-29T21:15:08.401Z,7.73
2018-03-29T21:17:36.674Z,7.69
2018-03-29T21:20:05.338Z,7.64
2018-03-29T21:22:33.609Z,7.64
2018-03-29T21:25:02.045Z,7.55
2018-03-29T21:27:30.303Z,7.53
2018-03-29T21:29:58.622Z,7.51
2018-03-29T21:32:26.913Z,7.55
2018-03-29T21:34:55.259Z,7.57
2018-03-29T21:37:23.492Z,7.44
2018-03-29T21:39:51.948Z,7.47
2018-03-29T21:42:20.458Z,7.44
2018-03-29T21:44:48.783Z,7.37
2018-03-29T21:47:17.197Z,7.40
2018-03-29T21:49:45.518Z,7.48
2018-03-29T21:52:13.764Z,7.44
2018-03-29T21:54:42.056Z,7.44
2018-03-29T21:57:10.328Z,7.39
2018-03-29T21:59:38.755Z,7.29
2018-03-29T22:02:07.032Z,7.37
2018-03-29T22:04:35.349Z,7.42
2018-03-29T22:07:04.504Z,7.44
2018-03-29T22:09:32.839Z,7.43
2018-03-29T22:12:01.136Z,7.39
2018-03-29T22:14:29.383Z,7.29
2018-03-29T22:16:57.692Z,7.17
2018-03-29T22:19:25.959Z,7.05
2018-03-29T22:21:55.065Z,6.96
2018-03-29T22:24:23.360Z,6.85
2018-03-29T22:26:51.714Z,6.94
2018-03-29T22:29:19.966Z,6.99
2018-03-29T22:31:48.373Z,6.98
2018-03-29T22:34:16.770Z,6.96
2018-03-29T22:36:45.015Z,6.94
2018-03-29T22:39:13.564Z,6.94
2018-03-29T22:41:41.904Z,6.71
2018-03-29T22:44:10.289Z,6.73
2018-03-29T22:46:38.615Z,6.82
2018-03-29T22:49:06.880Z,6.86
2018-03-29T22:51:35.211Z,6.88
2018-03-29T22:54:03.492Z,6.88
2018-03-29T22:56:31.761Z,6.89
2018-03-29T22:59:00.310Z,6.89
2018-03-29T23:01:28.630Z,6.98
2018-03-29T23:03:56.887Z,6.85
2018-03-29T23:06:25.140Z,6.89
2018-03-29T23:08:53.456Z,6.83
2018-03-29T23:11:21.745Z,6.88
2018-03-29T23:13:50.017Z,6.85
2018-03-29T23:16:18.263Z,6.77
2018-03-29T23:18:46.567Z,6.70
2018-03-29T23:21:14.899Z,6.58
2018-03-29T23:23:43.194Z,6.67
2018-03-29T23:26:11.514Z,6.64
2018-03-29T23:28:39.852Z,6.72
2018-03-29T23:31:08.105Z,6.75
2018-03-29T23:33:37.208Z,6.76
2018-03-29T23:36:05.475Z,6.73
2018-03-29T23:38:33.767Z,6.82
2018-03-29T23:41:02.419Z,6.77
2018-03-29T23:43:30.742Z,6.78
2018-03-29T23:45:59.022Z,6.62
2018-03-29T23:48:27.326Z,6.76
2018-03-29T23:50:56.569Z,6.60
2018-03-29T23:53:24.848Z,6.73
2018-03-29T23:55:53.147Z,6.72
2018-03-29T23:58:21.481Z,6.70
